Detall de PIREP

Printer-friendly versionPDF version

[2013/09/20 15:20:00]
Flight IATA:CT0001
Pilot Number:012
Company ICAO:CAT
Aircraft Type:A320/E
PAX:150
Departing Airport: LEDA
Destination Airport: LEMH
Alternate Airport:LEPA
Online: VATSIM
Route:REBUL G23 BCN H70 SARGO
Flight Level:F190
No Slew and time accel
No pause
Crash detect
Detect pilot in Cockpit between each 30 and 45 minutes
15:20 Zero fuel Weight: 124873 Lbs, Fuel Weight: 13721 Lbs
15:20 VATSIM:LEDA 201500Z 26005KT 220V300 9999 FEW035 25/09 Q1019
15:20 VATSIM:LEMH 201500Z 36014G25KT 9999 FEW030 25/13 Q1018
15:21 VOICE CATALONIAN
15:22 Parking Brakes off
15:26 Take-off
15:26 Take off Weight: 137818 Lbs
15:26 Wind: 170º @ 006 Knots Heading: 311º
15:26 POS N41º 44´ 02´´ E000º 31´ 35´´
15:26 Gear Up: 169 Knots
15:26 Flaps:3 at 169 Knots
15:27 Flaps:2 at 192 Knots
15:27 Flaps:0 at 194 Knots
15:33 TOC
15:33 Fuel Weight: 10899 Lb
15:41 Wind:321º@012 Knots Heading: 118º Ground Speed: 421 Knots Altitude 19133 ft
15:51 TOD
15:51 Fuel Weight: 8205 Lb
15:56 Wind:305º@013 Knots Heading: 166º Ground Speed: 327 Knots Altitude 12047 ft
16:08 Flaps:1 at 199 Knots
16:08 Flaps:3 at 197 Knots
16:08 Gear Down: 166 Knots
16:09 Flaps:4 at 151 Knots
16:09 Flaps:5 at 147 Knots
16:11 Wind:019º@015 Knots Heading: 011º Ground Speed: 133 Knots Altitude 1673 ft
16:13 TouchDown:Rate -191 ft/min Speed: 133 Knots
16:13 VATSIM:LEMH 201600Z 01013KT 330V030 9999 FEW030 25/14 Q1018
16:13 Land
16:13 Wind:019º@014 Knots
16:13 Heading: 011º
16:13 Flight Duration: 00:47
16:13 Landing Weight: 131060 Lbs
16:13 POS N39º 51´ 53´´ E004º 13´ 08´´
16:14 Parking brakes on
16:14 Block to Block Duration: 00:52
16:14 Final Fuel: 6095 Lbls
16:14 Spent Fuel: 7625 Lbls
16:14 Flight Length: 258 NM
16:14 TOD Land Length: 95 NM

Exportar CSV

Powered by Drupal - Modified by Danger4k